LiveATC.Net - Listen to live air traffic control over the Internet!


ICAO: KFWS  IATA: FWS   Airport: Fort Worth Spinks Airport
City: Fort Worth   State/Province: Texas
Country: United States   Continent: North America
KFWS METAR Weather: KFWS 222252Z 14017G25KT 10SM SCT047 31/21 A2978
KFWS Flight Activity (FlightAware)
KFWS Airport Info   (iFlightPlanner)
KFWS VFR Sectional Chart   (iFlightPlanner) 
KFWS IFR Low Chart   (iFlightPlanner) 

KFWS Ground/Tower
Feed Status: UP   Listeners: 0
Listen in your browser - HTML5 player (in browser, HTML5)
Click here to listen with your own player (launches your MP3 player)
KFWS Ground/Tower Audio Archives
FacilityFrequency
Spinks Ground119.475
Spinks Tower/CTAF124.625

NOTICE

Unauthorized use prohibited. See LiveATC.net Terms of Service


Find LiveATC Audio Streams


Airport/ARTCC Code

Frequency Search
(e.g., 124.400, 128.75)
Site-wide search
 


Browse LiveATC Feeds
Top 50 LiveATC Feeds
LiveATC Feed Map
Bad Weather Areas

LiveATC FAQ
Offer LiveATC feed
Contact LiveATC.net
Press Inquiries

LiveATC on iPhone
LiveATC on Android

Windows Phone
Windows 8/10

LiveATC Mobile
(Mobile browser)

ATC Audio Archives
Interesting Recordings

LiveATC Forums


Home Page
About LiveATC.net
Make a Donation
Terms of Use
Privacy Policy

Canadian Air Freqs

AIRMETs/SIGMETs

FAA Airport Status
Nat'l Airspace Status
Arrival Demand Charts


Server Software By:
Icecast.org
Liquidsoap